sensor_id;sensor_type;location;lat;lon;timestamp;temperature;humidity
8422;DHT22;4248;48.196;10.924;2022-08-03T00:01:39;17.00;56.90
8422;DHT22;4248;48.196;10.924;2022-08-03T00:04:06;17.00;56.80
8422;DHT22;4248;48.196;10.924;2022-08-03T00:06:32;17.00;56.80
8422;DHT22;4248;48.196;10.924;2022-08-03T00:08:58;17.00;57.00
8422;DHT22;4248;48.196;10.924;2022-08-03T00:11:23;16.90;56.90
8422;DHT22;4248;48.196;10.924;2022-08-03T00:13:49;16.90;57.20
8422;DHT22;4248;48.196;10.924;2022-08-03T00:16:15;16.80;57.30
8422;DHT22;4248;48.196;10.924;2022-08-03T00:18:41;16.80;57.40
8422;DHT22;4248;48.196;10.924;2022-08-03T00:21:07;16.80;57.90
8422;DHT22;4248;48.196;10.924;2022-08-03T00:23:33;16.70;57.80
8422;DHT22;4248;48.196;10.924;2022-08-03T00:25:59;16.70;57.80
8422;DHT22;4248;48.196;10.924;2022-08-03T00:28:25;16.60;57.70
8422;DHT22;4248;48.196;10.924;2022-08-03T00:30:50;16.50;57.60
8422;DHT22;4248;48.196;10.924;2022-08-03T00:33:16;16.50;57.70
8422;DHT22;4248;48.196;10.924;2022-08-03T00:35:42;16.40;57.50
8422;DHT22;4248;48.196;10.924;2022-08-03T00:38:07;16.30;57.40
8422;DHT22;4248;48.196;10.924;2022-08-03T00:40:33;16.30;57.50
8422;DHT22;4248;48.196;10.924;2022-08-03T00:43:03;16.20;57.70
8422;DHT22;4248;48.196;10.924;2022-08-03T00:45:32;16.20;58.00
8422;DHT22;4248;48.196;10.924;2022-08-03T00:47:58;16.20;57.90
8422;DHT22;4248;48.196;10.924;2022-08-03T00:50:26;16.20;57.70
8422;DHT22;4248;48.196;10.924;2022-08-03T00:52:53;16.20;56.50
8422;DHT22;4248;48.196;10.924;2022-08-03T00:55:19;16.20;57.40
8422;DHT22;4248;48.196;10.924;2022-08-03T00:57:46;16.20;57.40
8422;DHT22;4248;48.196;10.924;2022-08-03T01:00:14;16.20;57.40
8422;DHT22;4248;48.196;10.924;2022-08-03T01:02:40;16.10;56.60
8422;DHT22;4248;48.196;10.924;2022-08-03T01:05:07;16.10;57.60
8422;DHT22;4248;48.196;10.924;2022-08-03T01:13:34;16.10;57.60
8422;DHT22;4248;48.196;10.924;2022-08-03T01:18:40;16.20;57.30
8422;DHT22;4248;48.196;10.924;2022-08-03T01:21:13;16.30;57.50
8422;DHT22;4248;48.196;10.924;2022-08-03T01:24:02;16.30;57.50
8422;DHT22;4248;48.196;10.924;2022-08-03T01:32:11;16.30;57.40
8422;DHT22;4248;48.196;10.924;2022-08-03T01:34:46;16.20;56.30
8422;DHT22;4248;48.196;10.924;2022-08-03T01:37:15;16.20;57.40
8422;DHT22;4248;48.196;10.924;2022-08-03T01:39:45;16.10;57.70
8422;DHT22;4248;48.196;10.924;2022-08-03T01:42:10;16.10;58.00
8422;DHT22;4248;48.196;10.924;2022-08-03T01:44:40;16.00;57.40
8422;DHT22;4248;48.196;10.924;2022-08-03T01:47:07;15.90;58.40
8422;DHT22;4248;48.196;10.924;2022-08-03T01:49:38;15.80;58.80
8422;DHT22;4248;48.196;10.924;2022-08-03T01:52:05;15.70;59.10
8422;DHT22;4248;48.196;10.924;2022-08-03T01:54:39;15.70;59.60
8422;DHT22;4248;48.196;10.924;2022-08-03T01:57:06;15.60;59.60
8422;DHT22;4248;48.196;10.924;2022-08-03T01:59:34;15.60;59.60
8422;DHT22;4248;48.196;10.924;2022-08-03T02:02:01;15.50;59.70
8422;DHT22;4248;48.196;10.924;2022-08-03T02:04:27;15.50;59.90
8422;DHT22;4248;48.196;10.924;2022-08-03T02:06:53;15.50;59.90
8422;DHT22;4248;48.196;10.924;2022-08-03T02:09:21;15.40;59.80
8422;DHT22;4248;48.196;10.924;2022-08-03T02:11:48;15.40;59.90
8422;DHT22;4248;48.196;10.924;2022-08-03T02:14:15;15.40;59.90
8422;DHT22;4248;48.196;10.924;2022-08-03T02:16:42;15.40;59.90
8422;DHT22;4248;48.196;10.924;2022-08-03T02:19:10;15.40;60.00
8422;DHT22;4248;48.196;10.924;2022-08-03T02:21:36;15.30;59.90
8422;DHT22;4248;48.196;10.924;2022-08-03T02:24:03;15.30;59.90
8422;DHT22;4248;48.196;10.924;2022-08-03T02:26:30;15.30;59.80
8422;DHT22;4248;48.196;10.924;2022-08-03T02:29:01;15.30;59.80
8422;DHT22;4248;48.196;10.924;2022-08-03T02:31:30;15.30;59.90
8422;DHT22;4248;48.196;10.924;2022-08-03T02:34:02;15.30;60.00
8422;DHT22;4248;48.196;10.924;2022-08-03T02:36:31;15.30;59.90
8422;DHT22;4248;48.196;10.924;2022-08-03T02:38:59;15.30;59.70
8422;DHT22;4248;48.196;10.924;2022-08-03T02:42:02;15.40;59.70
8422;DHT22;4248;48.196;10.924;2022-08-03T02:44:27;15.30;59.60
8422;DHT22;4248;48.196;10.924;2022-08-03T02:46:59;15.30;59.60
8422;DHT22;4248;48.196;10.924;2022-08-03T02:49:26;15.30;59.70
8422;DHT22;4248;48.196;10.924;2022-08-03T02:51:54;15.30;59.80
8422;DHT22;4248;48.196;10.924;2022-08-03T02:54:22;15.30;59.80
8422;DHT22;4248;48.196;10.924;2022-08-03T02:56:49;15.30;59.80
8422;DHT22;4248;48.196;10.924;2022-08-03T02:59:17;15.30;59.80
8422;DHT22;4248;48.196;10.924;2022-08-03T03:01:44;15.30;59.80
8422;DHT22;4248;48.196;10.924;2022-08-03T03:04:10;15.30;59.80
8422;DHT22;4248;48.196;10.924;2022-08-03T03:06:38;15.30;59.80
8422;DHT22;4248;48.196;10.924;2022-08-03T03:09:04;15.30;59.90
8422;DHT22;4248;48.196;10.924;2022-08-03T03:11:31;15.20;59.80
8422;DHT22;4248;48.196;10.924;2022-08-03T03:13:57;15.20;60.00
8422;DHT22;4248;48.196;10.924;2022-08-03T03:16:25;15.10;60.00
8422;DHT22;4248;48.196;10.924;2022-08-03T03:18:53;15.10;60.00
8422;DHT22;4248;48.196;10.924;2022-08-03T03:21:20;15.20;60.00
8422;DHT22;4248;48.196;10.924;2022-08-03T03:23:46;15.20;60.00
8422;DHT22;4248;48.196;10.924;2022-08-03T03:26:16;15.20;60.00
8422;DHT22;4248;48.196;10.924;2022-08-03T03:28:42;15.10;60.40
8422;DHT22;4248;48.196;10.924;2022-08-03T03:31:08;15.00;60.50
8422;DHT22;4248;48.196;10.924;2022-08-03T03:33:35;14.90;60.50
8422;DHT22;4248;48.196;10.924;2022-08-03T03:36:01;14.90;60.50
8422;DHT22;4248;48.196;10.924;2022-08-03T03:38:27;14.90;60.70
8422;DHT22;4248;48.196;10.924;2022-08-03T03:40:54;14.80;60.80
8422;DHT22;4248;48.196;10.924;2022-08-03T03:43:19;14.80;60.90
8422;DHT22;4248;48.196;10.924;2022-08-03T03:45:47;14.70;60.90
8422;DHT22;4248;48.196;10.924;2022-08-03T03:48:13;14.80;60.90
8422;DHT22;4248;48.196;10.924;2022-08-03T03:50:39;14.80;60.70
8422;DHT22;4248;48.196;10.924;2022-08-03T03:53:08;14.80;60.60
8422;DHT22;4248;48.196;10.924;2022-08-03T03:55:36;14.80;60.50
8422;DHT22;4248;48.196;10.924;2022-08-03T03:58:01;14.90;60.50
8422;DHT22;4248;48.196;10.924;2022-08-03T04:00:28;14.90;60.30
8422;DHT22;4248;48.196;10.924;2022-08-03T04:02:55;14.90;60.30
8422;DHT22;4248;48.196;10.924;2022-08-03T04:05:20;15.00;60.40
8422;DHT22;4248;48.196;10.924;2022-08-03T04:08:12;15.00;60.50
8422;DHT22;4248;48.196;10.924;2022-08-03T04:11:15;15.00;60.40
8422;DHT22;4248;48.196;10.924;2022-08-03T04:16:18;15.10;60.10
8422;DHT22;4248;48.196;10.924;2022-08-03T04:18:48;15.20;60.00
8422;DHT22;4248;48.196;10.924;2022-08-03T04:21:17;15.30;60.10
8422;DHT22;4248;48.196;10.924;2022-08-03T04:23:48;15.30;60.10
8422;DHT22;4248;48.196;10.924;2022-08-03T04:26:19;15.30;60.10
8422;DHT22;4248;48.196;10.924;2022-08-03T04:28:45;15.30;60.10
8422;DHT22;4248;48.196;10.924;2022-08-03T04:31:12;15.60;60.40
8422;DHT22;4248;48.196;10.924;2022-08-03T04:33:40;15.40;60.00
8422;DHT22;4248;48.196;10.924;2022-08-03T04:36:07;15.40;60.00
8422;DHT22;4248;48.196;10.924;2022-08-03T04:38:42;15.50;60.00
8422;DHT22;4248;48.196;10.924;2022-08-03T04:41:09;15.60;60.00
8422;DHT22;4248;48.196;10.924;2022-08-03T04:43:35;15.60;59.80
8422;DHT22;4248;48.196;10.924;2022-08-03T04:46:04;15.60;59.70
8422;DHT22;4248;48.196;10.924;2022-08-03T04:48:31;15.70;59.70
8422;DHT22;4248;48.196;10.924;2022-08-03T04:50:57;15.70;59.60
8422;DHT22;4248;48.196;10.924;2022-08-03T04:53:22;15.80;59.50
8422;DHT22;4248;48.196;10.924;2022-08-03T04:55:48;15.90;59.40
8422;DHT22;4248;48.196;10.924;2022-08-03T04:58:14;16.00;59.10
8422;DHT22;4248;48.196;10.924;2022-08-03T05:00:39;16.20;58.80
8422;DHT22;4248;48.196;10.924;2022-08-03T05:03:05;17.10;58.30
8422;DHT22;4248;48.196;10.924;2022-08-03T05:05:30;18.70;56.70
8422;DHT22;4248;48.196;10.924;2022-08-03T05:07:56;20.30;53.90
8422;DHT22;4248;48.196;10.924;2022-08-03T05:10:22;21.70;50.10
8422;DHT22;4248;48.196;10.924;2022-08-03T05:12:47;23.80;43.90
8422;DHT22;4248;48.196;10.924;2022-08-03T05:15:16;23.90;44.60
8422;DHT22;4248;48.196;10.924;2022-08-03T05:17:41;24.70;42.30
8422;DHT22;4248;48.196;10.924;2022-08-03T05:20:07;24.60;41.60
8422;DHT22;4248;48.196;10.924;2022-08-03T05:22:33;25.20;39.70
8422;DHT22;4248;48.196;10.924;2022-08-03T05:25:00;26.00;37.30
8422;DHT22;4248;48.196;10.924;2022-08-03T05:27:26;26.80;34.70
8422;DHT22;4248;48.196;10.924;2022-08-03T05:29:51;27.60;32.10
8422;DHT22;4248;48.196;10.924;2022-08-03T05:32:17;28.30;29.70
8422;DHT22;4248;48.196;10.924;2022-08-03T05:34:43;29.00;27.60
8422;DHT22;4248;48.196;10.924;2022-08-03T05:37:09;29.50;25.80
8422;DHT22;4248;48.196;10.924;2022-08-03T05:39:35;30.00;24.00
8422;DHT22;4248;48.196;10.924;2022-08-03T05:42:01;30.60;22.30
8422;DHT22;4248;48.196;10.924;2022-08-03T05:44:27;31.10;20.90
8422;DHT22;4248;48.196;10.924;2022-08-03T05:46:52;31.40;20.00
8422;DHT22;4248;48.196;10.924;2022-08-03T05:49:19;31.70;19.10
8422;DHT22;4248;48.196;10.924;2022-08-03T05:51:44;31.80;18.50
8422;DHT22;4248;48.196;10.924;2022-08-03T05:54:10;31.80;18.50
8422;DHT22;4248;48.196;10.924;2022-08-03T05:56:36;31.80;18.50
8422;DHT22;4248;48.196;10.924;2022-08-03T05:59:01;32.00;17.70
8422;DHT22;4248;48.196;10.924;2022-08-03T06:01:28;32.20;17.10
8422;DHT22;4248;48.196;10.924;2022-08-03T06:03:54;32.40;16.20
8422;DHT22;4248;48.196;10.924;2022-08-03T06:06:20;32.70;15.50
8422;DHT22;4248;48.196;10.924;2022-08-03T06:08:45;32.80;15.10
8422;DHT22;4248;48.196;10.924;2022-08-03T06:11:13;32.90;14.90
8422;DHT22;4248;48.196;10.924;2022-08-03T06:13:39;33.10;14.30
8422;DHT22;4248;48.196;10.924;2022-08-03T06:16:05;33.10;13.90
8422;DHT22;4248;48.196;10.924;2022-08-03T06:18:30;33.20;13.60
8422;DHT22;4248;48.196;10.924;2022-08-03T06:20:56;33.30;13.10
8422;DHT22;4248;48.196;10.924;2022-08-03T06:23:21;33.20;12.50
8422;DHT22;4248;48.196;10.924;2022-08-03T06:25:47;33.50;11.50
8422;DHT22;4248;48.196;10.924;2022-08-03T06:28:13;33.30;11.90
8422;DHT22;4248;48.196;10.924;2022-08-03T06:30:39;31.80;15.70
8422;DHT22;4248;48.196;10.924;2022-08-03T06:33:05;30.30;19.00
8422;DHT22;4248;48.196;10.924;2022-08-03T06:35:30;29.40;20.80
8422;DHT22;4248;48.196;10.924;2022-08-03T06:37:56;28.80;21.80
8422;DHT22;4248;48.196;10.924;2022-08-03T06:40:22;29.30;19.30
8422;DHT22;4248;48.196;10.924;2022-08-03T06:42:57;31.40;12.40
8422;DHT22;4248;48.196;10.924;2022-08-03T06:45:22;31.50;12.90
8422;DHT22;4248;48.196;10.924;2022-08-03T06:48:08;32.10;11.10
8422;DHT22;4248;48.196;10.924;2022-08-03T06:50:35;32.60;9.70
8422;DHT22;4248;48.196;10.924;2022-08-03T06:53:01;33.00;9.00
8422;DHT22;4248;48.196;10.924;2022-08-03T06:55:27;33.30;8.30
8422;DHT22;4248;48.196;10.924;2022-08-03T06:57:53;33.40;8.00
8422;DHT22;4248;48.196;10.924;2022-08-03T07:00:19;33.40;8.00
8422;DHT22;4248;48.196;10.924;2022-08-03T07:02:45;31.60;11.90
8422;DHT22;4248;48.196;10.924;2022-08-03T07:05:11;31.50;12.80
8422;DHT22;4248;48.196;10.924;2022-08-03T07:07:38;30.20;15.70
8422;DHT22;4248;48.196;10.924;2022-08-03T07:10:05;29.40;17.60
8422;DHT22;4248;48.196;10.924;2022-08-03T07:12:31;28.80;19.10
8422;DHT22;4248;48.196;10.924;2022-08-03T07:14:59;28.30;19.70
8422;DHT22;4248;48.196;10.924;2022-08-03T07:17:24;27.80;20.50
8422;DHT22;4248;48.196;10.924;2022-08-03T07:19:50;27.60;20.90
8422;DHT22;4248;48.196;10.924;2022-08-03T07:22:16;27.50;20.70
8422;DHT22;4248;48.196;10.924;2022-08-03T07:24:41;27.20;20.70
8422;DHT22;4248;48.196;10.924;2022-08-03T07:27:08;27.00;21.00
8422;DHT22;4248;48.196;10.924;2022-08-03T07:29:34;26.90;21.00
8422;DHT22;4248;48.196;10.924;2022-08-03T07:32:00;26.80;21.30
8422;DHT22;4248;48.196;10.924;2022-08-03T07:34:26;26.50;21.90
8422;DHT22;4248;48.196;10.924;2022-08-03T07:36:51;26.60;22.20
8422;DHT22;4248;48.196;10.924;2022-08-03T07:39:17;26.70;22.10
8422;DHT22;4248;48.196;10.924;2022-08-03T07:41:43;26.80;22.20
8422;DHT22;4248;48.196;10.924;2022-08-03T07:44:09;27.00;22.00
8422;DHT22;4248;48.196;10.924;2022-08-03T07:46:34;27.00;21.90
8422;DHT22;4248;48.196;10.924;2022-08-03T07:49:00;27.00;22.00
8422;DHT22;4248;48.196;10.924;2022-08-03T07:51:26;26.90;22.10
8422;DHT22;4248;48.196;10.924;2022-08-03T07:53:51;26.80;22.30
8422;DHT22;4248;48.196;10.924;2022-08-03T07:56:17;26.70;22.50
8422;DHT22;4248;48.196;10.924;2022-08-03T07:58:43;26.70;22.30
8422;DHT22;4248;48.196;10.924;2022-08-03T08:01:09;26.90;22.30
8422;DHT22;4248;48.196;10.924;2022-08-03T08:03:35;27.10;21.80
8422;DHT22;4248;48.196;10.924;2022-08-03T08:06:00;27.20;21.70
8422;DHT22;4248;48.196;10.924;2022-08-03T08:08:26;27.10;21.90
8422;DHT22;4248;48.196;10.924;2022-08-03T08:10:52;27.10;21.70
8422;DHT22;4248;48.196;10.924;2022-08-03T08:13:17;27.30;21.50
8422;DHT22;4248;48.196;10.924;2022-08-03T08:15:43;27.50;21.40
8422;DHT22;4248;48.196;10.924;2022-08-03T08:18:08;27.60;20.80
8422;DHT22;4248;48.196;10.924;2022-08-03T08:20:35;27.40;20.60
8422;DHT22;4248;48.196;10.924;2022-08-03T08:23:06;27.40;20.70
8422;DHT22;4248;48.196;10.924;2022-08-03T08:25:33;27.50;20.70
8422;DHT22;4248;48.196;10.924;2022-08-03T08:27:59;27.40;20.50
8422;DHT22;4248;48.196;10.924;2022-08-03T08:30:27;27.30;20.30
8422;DHT22;4248;48.196;10.924;2022-08-03T08:32:52;27.60;18.60
8422;DHT22;4248;48.196;10.924;2022-08-03T08:35:18;27.60;19.10
8422;DHT22;4248;48.196;10.924;2022-08-03T08:37:44;27.70;18.90
8422;DHT22;4248;48.196;10.924;2022-08-03T08:40:11;27.80;18.70
8422;DHT22;4248;48.196;10.924;2022-08-03T08:42:39;28.00;17.50
8422;DHT22;4248;48.196;10.924;2022-08-03T08:45:05;28.00;18.40
8422;DHT22;4248;48.196;10.924;2022-08-03T08:47:35;28.20;17.90
8422;DHT22;4248;48.196;10.924;2022-08-03T08:50:02;28.10;18.10
8422;DHT22;4248;48.196;10.924;2022-08-03T08:52:29;28.10;17.70
8422;DHT22;4248;48.196;10.924;2022-08-03T08:54:59;28.00;17.50
8422;DHT22;4248;48.196;10.924;2022-08-03T08:57:32;28.10;17.50
8422;DHT22;4248;48.196;10.924;2022-08-03T09:00:00;28.40;17.30
8422;DHT22;4248;48.196;10.924;2022-08-03T09:02:28;28.50;16.80
8422;DHT22;4248;48.196;10.924;2022-08-03T09:04:55;28.50;16.30
8422;DHT22;4248;48.196;10.924;2022-08-03T09:07:20;28.70;16.60
8422;DHT22;4248;48.196;10.924;2022-08-03T09:09:46;28.80;16.30
8422;DHT22;4248;48.196;10.924;2022-08-03T09:12:12;28.90;16.50
8422;DHT22;4248;48.196;10.924;2022-08-03T09:14:38;28.90;16.20
8422;DHT22;4248;48.196;10.924;2022-08-03T09:17:04;28.80;16.70
8422;DHT22;4248;48.196;10.924;2022-08-03T09:19:31;28.40;16.00
8422;DHT22;4248;48.196;10.924;2022-08-03T09:22:14;28.30;15.80
8422;DHT22;4248;48.196;10.924;2022-08-03T09:25:02;28.50;15.50
8422;DHT22;4248;48.196;10.924;2022-08-03T09:27:28;28.90;15.00
8422;DHT22;4248;48.196;10.924;2022-08-03T09:30:15;29.10;14.90
8422;DHT22;4248;48.196;10.924;2022-08-03T09:32:41;29.10;14.00
8422;DHT22;4248;48.196;10.924;2022-08-03T09:35:09;29.00;14.70
8422;DHT22;4248;48.196;10.924;2022-08-03T09:37:36;29.00;14.90
8422;DHT22;4248;48.196;10.924;2022-08-03T09:40:02;28.90;14.40
8422;DHT22;4248;48.196;10.924;2022-08-03T09:42:28;28.80;14.10
8422;DHT22;4248;48.196;10.924;2022-08-03T09:44:54;28.80;14.20
8422;DHT22;4248;48.196;10.924;2022-08-03T09:47:31;29.00;14.40
8422;DHT22;4248;48.196;10.924;2022-08-03T09:50:07;29.30;14.20
8422;DHT22;4248;48.196;10.924;2022-08-03T09:52:37;29.20;13.40
8422;DHT22;4248;48.196;10.924;2022-08-03T09:55:11;29.20;13.10
8422;DHT22;4248;48.196;10.924;2022-08-03T09:57:37;29.20;12.90
8422;DHT22;4248;48.196;10.924;2022-08-03T10:00:10;29.20;13.10
8422;DHT22;4248;48.196;10.924;2022-08-03T10:02:37;29.10;12.50
8422;DHT22;4248;48.196;10.924;2022-08-03T10:05:03;29.10;11.70
8422;DHT22;4248;48.196;10.924;2022-08-03T10:07:29;29.20;12.50
8422;DHT22;4248;48.196;10.924;2022-08-03T10:10:06;29.20;11.90
8422;DHT22;4248;48.196;10.924;2022-08-03T10:12:32;29.00;12.00
8422;DHT22;4248;48.196;10.924;2022-08-03T10:14:58;28.80;12.60
8422;DHT22;4248;48.196;10.924;2022-08-03T10:17:24;28.80;11.80
8422;DHT22;4248;48.196;10.924;2022-08-03T10:19:49;29.10;12.00
8422;DHT22;4248;48.196;10.924;2022-08-03T10:22:21;29.40;12.00
8422;DHT22;4248;48.196;10.924;2022-08-03T10:24:55;29.60;12.00
8422;DHT22;4248;48.196;10.924;2022-08-03T10:27:22;29.70;11.50
8422;DHT22;4248;48.196;10.924;2022-08-03T10:29:54;29.70;11.40
8422;DHT22;4248;48.196;10.924;2022-08-03T10:35:22;27.20;9.70
8422;DHT22;4248;48.196;10.924;2022-08-03T10:38:01;29.70;11.30
8422;DHT22;4248;48.196;10.924;2022-08-03T10:40:29;29.90;11.80
8422;DHT22;4248;48.196;10.924;2022-08-03T10:43:02;29.70;10.50
8422;DHT22;4248;48.196;10.924;2022-08-03T10:45:33;29.70;10.90
8422;DHT22;4248;48.196;10.924;2022-08-03T10:48:01;29.70;11.00
8422;DHT22;4248;48.196;10.924;2022-08-03T10:50:27;29.70;10.80
8422;DHT22;4248;48.196;10.924;2022-08-03T10:53:00;29.50;10.00
8422;DHT22;4248;48.196;10.924;2022-08-03T10:55:45;29.40;10.50
8422;DHT22;4248;48.196;10.924;2022-08-03T10:58:52;29.30;10.60
8422;DHT22;4248;48.196;10.924;2022-08-03T11:01:48;29.30;10.60
8422;DHT22;4248;48.196;10.924;2022-08-03T11:06:30;29.30;10.20
8422;DHT22;4248;48.196;10.924;2022-08-03T11:09:15;29.40;10.00
8422;DHT22;4248;48.196;10.924;2022-08-03T11:11:42;29.70;10.00
8422;DHT22;4248;48.196;10.924;2022-08-03T11:14:20;29.80;9.40
8422;DHT22;4248;48.196;10.924;2022-08-03T11:17:05;29.90;10.50
8422;DHT22;4248;48.196;10.924;2022-08-03T11:19:51;30.00;9.90
8422;DHT22;4248;48.196;10.924;2022-08-03T11:22:19;29.90;9.70
8422;DHT22;4248;48.196;10.924;2022-08-03T11:27:15;29.80;10.00
8422;DHT22;4248;48.196;10.924;2022-08-03T11:35:07;30.20;7.30
8422;DHT22;4248;48.196;10.924;2022-08-03T11:37:32;30.30;8.20
8422;DHT22;4248;48.196;10.924;2022-08-03T11:39:58;30.40;8.20
8422;DHT22;4248;48.196;10.924;2022-08-03T11:44:55;30.20;6.80
8422;DHT22;4248;48.196;10.924;2022-08-03T11:47:23;30.00;7.60
8422;DHT22;4248;48.196;10.924;2022-08-03T11:49:55;29.90;7.70
8422;DHT22;4248;48.196;10.924;2022-08-03T11:52:23;29.90;7.70
8422;DHT22;4248;48.196;10.924;2022-08-03T11:54:52;30.10;7.60
8422;DHT22;4248;48.196;10.924;2022-08-03T11:57:31;30.10;6.70
8422;DHT22;4248;48.196;10.924;2022-08-03T11:59:57;30.10;6.40
8422;DHT22;4248;48.196;10.924;2022-08-03T12:02:23;30.20;7.00
8422;DHT22;4248;48.196;10.924;2022-08-03T12:04:59;30.20;7.10
8422;DHT22;4248;48.196;10.924;2022-08-03T12:07:27;29.90;6.10
8422;DHT22;4248;48.196;10.924;2022-08-03T12:12:36;30.20;6.30
8422;DHT22;4248;48.196;10.924;2022-08-03T12:15:03;30.20;6.30
8422;DHT22;4248;48.196;10.924;2022-08-03T12:17:37;30.30;6.30
8422;DHT22;4248;48.196;10.924;2022-08-03T12:20:05;30.20;6.30
8422;DHT22;4248;48.196;10.924;2022-08-03T12:22:38;30.20;5.70
8422;DHT22;4248;48.196;10.924;2022-08-03T12:25:20;30.30;5.50
8422;DHT22;4248;48.196;10.924;2022-08-03T12:27:45;30.40;5.50
8422;DHT22;4248;48.196;10.924;2022-08-03T12:30:11;30.60;5.70
8422;DHT22;4248;48.196;10.924;2022-08-03T12:32:37;30.60;5.70
8422;DHT22;4248;48.196;10.924;2022-08-03T12:35:03;30.50;5.20
8422;DHT22;4248;48.196;10.924;2022-08-03T12:37:30;30.40;5.30
8422;DHT22;4248;48.196;10.924;2022-08-03T12:39:58;30.40;5.10
8422;DHT22;4248;48.196;10.924;2022-08-03T12:42:36;30.40;5.00
8422;DHT22;4248;48.196;10.924;2022-08-03T12:45:22;30.50;5.00
8422;DHT22;4248;48.196;10.924;2022-08-03T12:47:53;30.60;4.70
8422;DHT22;4248;48.196;10.924;2022-08-03T12:50:32;30.60;4.60
8422;DHT22;4248;48.196;10.924;2022-08-03T12:53:01;30.60;3.30
8422;DHT22;4248;48.196;10.924;2022-08-03T12:55:27;30.70;3.90
8422;DHT22;4248;48.196;10.924;2022-08-03T12:58:07;30.90;3.90
8422;DHT22;4248;48.196;10.924;2022-08-03T13:00:35;31.00;3.60
8422;DHT22;4248;48.196;10.924;2022-08-03T13:03:06;31.10;3.60
8422;DHT22;4248;48.196;10.924;2022-08-03T13:05:44;31.10;3.60
8422;DHT22;4248;48.196;10.924;2022-08-03T13:08:21;31.20;3.30
8422;DHT22;4248;48.196;10.924;2022-08-03T13:10:47;31.20;3.60
8422;DHT22;4248;48.196;10.924;2022-08-03T13:13:13;31.10;2.60
8422;DHT22;4248;48.196;10.924;2022-08-03T13:15:39;31.10;3.50
8422;DHT22;4248;48.196;10.924;2022-08-03T13:18:05;31.10;3.50
8422;DHT22;4248;48.196;10.924;2022-08-03T13:20:31;31.00;3.40
8422;DHT22;4248;48.196;10.924;2022-08-03T13:22:56;31.10;3.10
8422;DHT22;4248;48.196;10.924;2022-08-03T13:25:22;31.10;3.70
8422;DHT22;4248;48.196;10.924;2022-08-03T13:27:47;31.20;3.90
8422;DHT22;4248;48.196;10.924;2022-08-03T13:30:14;31.20;3.50
8422;DHT22;4248;48.196;10.924;2022-08-03T13:32:40;31.10;3.70
8422;DHT22;4248;48.196;10.924;2022-08-03T13:35:06;30.90;3.40
8422;DHT22;4248;48.196;10.924;2022-08-03T13:37:33;30.90;3.40
8422;DHT22;4248;48.196;10.924;2022-08-03T13:40:00;30.90;3.40
8422;DHT22;4248;48.196;10.924;2022-08-03T13:42:27;30.90;3.40
8422;DHT22;4248;48.196;10.924;2022-08-03T13:44:53;31.00;3.50
8422;DHT22;4248;48.196;10.924;2022-08-03T13:47:19;31.10;3.30
8422;DHT22;4248;48.196;10.924;2022-08-03T13:49:45;31.00;3.40
8422;DHT22;4248;48.196;10.924;2022-08-03T13:52:10;30.90;3.20
8422;DHT22;4248;48.196;10.924;2022-08-03T13:54:36;31.00;3.20
8422;DHT22;4248;48.196;10.924;2022-08-03T13:57:02;31.10;3.10
8422;DHT22;4248;48.196;10.924;2022-08-03T13:59:27;31.20;3.20
8422;DHT22;4248;48.196;10.924;2022-08-03T14:01:53;31.20;3.30
8422;DHT22;4248;48.196;10.924;2022-08-03T14:04:19;31.30;3.00
8422;DHT22;4248;48.196;10.924;2022-08-03T14:06:45;31.30;3.00
8422;DHT22;4248;48.196;10.924;2022-08-03T14:09:12;31.40;2.90
8422;DHT22;4248;48.196;10.924;2022-08-03T14:11:38;31.40;2.80
8422;DHT22;4248;48.196;10.924;2022-08-03T14:14:04;31.50;2.70
8422;DHT22;4248;48.196;10.924;2022-08-03T14:16:30;31.40;2.80
8422;DHT22;4248;48.196;10.924;2022-08-03T14:18:55;31.40;3.60
8422;DHT22;4248;48.196;10.924;2022-08-03T14:21:21;31.50;2.60
8422;DHT22;4248;48.196;10.924;2022-08-03T14:23:46;31.50;2.40
8422;DHT22;4248;48.196;10.924;2022-08-03T14:26:12;31.40;2.20
8422;DHT22;4248;48.196;10.924;2022-08-03T14:28:39;31.20;2.50
8422;DHT22;4248;48.196;10.924;2022-08-03T14:31:04;31.20;2.90
8422;DHT22;4248;48.196;10.924;2022-08-03T14:33:30;31.20;2.60
8422;DHT22;4248;48.196;10.924;2022-08-03T14:35:56;31.10;2.50
8422;DHT22;4248;48.196;10.924;2022-08-03T14:38:22;31.10;2.80
8422;DHT22;4248;48.196;10.924;2022-08-03T14:40:48;31.10;2.90
8422;DHT22;4248;48.196;10.924;2022-08-03T14:43:15;31.10;3.00
8422;DHT22;4248;48.196;10.924;2022-08-03T14:45:46;31.10;3.00
8422;DHT22;4248;48.196;10.924;2022-08-03T14:48:11;31.20;4.10
8422;DHT22;4248;48.196;10.924;2022-08-03T14:50:37;31.20;3.00
8422;DHT22;4248;48.196;10.924;2022-08-03T14:53:03;31.40;1.80
8422;DHT22;4248;48.196;10.924;2022-08-03T14:55:28;31.40;2.50
8422;DHT22;4248;48.196;10.924;2022-08-03T14:57:54;31.40;2.50
8422;DHT22;4248;48.196;10.924;2022-08-03T15:00:20;31.40;2.10
8422;DHT22;4248;48.196;10.924;2022-08-03T15:02:45;31.30;1.10
8422;DHT22;4248;48.196;10.924;2022-08-03T15:05:11;31.30;2.00
8422;DHT22;4248;48.196;10.924;2022-08-03T15:07:37;31.20;1.60
8422;DHT22;4248;48.196;10.924;2022-08-03T15:10:03;31.20;1.30
8422;DHT22;4248;48.196;10.924;2022-08-03T15:12:29;31.30;1.30
8422;DHT22;4248;48.196;10.924;2022-08-03T15:14:54;31.20;1.00
8422;DHT22;4248;48.196;10.924;2022-08-03T15:17:20;31.10;1.20
8422;DHT22;4248;48.196;10.924;2022-08-03T15:19:46;31.10;1.70
8422;DHT22;4248;48.196;10.924;2022-08-03T15:22:11;31.10;1.00
8422;DHT22;4248;48.196;10.924;2022-08-03T15:24:40;31.10;1.00
8422;DHT22;4248;48.196;10.924;2022-08-03T15:27:05;31.00;1.00
8422;DHT22;4248;48.196;10.924;2022-08-03T15:29:31;31.10;1.00
8422;DHT22;4248;48.196;10.924;2022-08-03T15:31:56;31.10;1.00
8422;DHT22;4248;48.196;10.924;2022-08-03T15:34:22;31.10;1.00
8422;DHT22;4248;48.196;10.924;2022-08-03T15:36:48;31.10;1.00
8422;DHT22;4248;48.196;10.924;2022-08-03T15:39:13;31.20;1.00
8422;DHT22;4248;48.196;10.924;2022-08-03T15:41:39;31.20;1.00
8422;DHT22;4248;48.196;10.924;2022-08-03T15:44:05;31.70;1.00
8422;DHT22;4248;48.196;10.924;2022-08-03T15:46:30;31.10;1.00
8422;DHT22;4248;48.196;10.924;2022-08-03T15:48:56;31.10;1.00
8422;DHT22;4248;48.196;10.924;2022-08-03T15:51:21;31.00;1.00
8422;DHT22;4248;48.196;10.924;2022-08-03T15:53:47;31.10;1.00
8422;DHT22;4248;48.196;10.924;2022-08-03T15:56:12;31.10;1.00
8422;DHT22;4248;48.196;10.924;2022-08-03T15:58:38;31.00;1.00
8422;DHT22;4248;48.196;10.924;2022-08-03T16:01:05;31.00;1.00
8422;DHT22;4248;48.196;10.924;2022-08-03T16:03:31;31.00;1.00
8422;DHT22;4248;48.196;10.924;2022-08-03T16:06:04;31.00;1.00
8422;DHT22;4248;48.196;10.924;2022-08-03T16:08:30;30.90;1.00
8422;DHT22;4248;48.196;10.924;2022-08-03T16:10:56;30.90;1.00
8422;DHT22;4248;48.196;10.924;2022-08-03T16:13:22;30.80;1.00
8422;DHT22;4248;48.196;10.924;2022-08-03T16:15:48;30.80;1.00
8422;DHT22;4248;48.196;10.924;2022-08-03T16:18:15;30.80;1.00
8422;DHT22;4248;48.196;10.924;2022-08-03T16:20:40;30.70;1.00
8422;DHT22;4248;48.196;10.924;2022-08-03T16:23:06;30.60;1.00
8422;DHT22;4248;48.196;10.924;2022-08-03T16:25:32;30.60;1.00
8422;DHT22;4248;48.196;10.924;2022-08-03T16:27:57;30.60;1.00
8422;DHT22;4248;48.196;10.924;2022-08-03T16:30:23;30.60;1.00
8422;DHT22;4248;48.196;10.924;2022-08-03T16:32:49;30.50;1.00